Time;durP1;ratioP1;P1;durP2;ratioP2;P2;SDS_P1;SDS_P2;PMS_P1;PMS_P2;Temp;Humidity;BMP_temperature;BMP_pressure;BME280_temperature;BME280_humidity;BME280_pressure;Samples;Min_cycle;Max_cycle;Signal;HPM_P1;HPM_P2
2020/08/12 01:41:26;;;;;;;37.1;33.8;;;;;;;17.92;91.41211;95269.67;;;;
2020/08/12 01:42:31;;;;;;;37.1;33.8;;;;;;;17.92;91.41211;95269.67;;;;
2020/08/12 01:43:47;;;;;;;37.1;33.8;;;;;;;17.92;91.41211;95269.67;;;;
2020/08/12 01:44:52;;;;;;;37.1;33.8;;;;;;;17.92;91.41211;95269.67;;;;
2020/08/12 01:45:57;;;;;;;37.1;33.8;;;;;;;17.92;91.41211;95269.67;;;;
2020/08/12 01:46:58;;;;;;;37.1;33.8;;;;;;;17.92;91.41211;95269.67;;;;
2020/08/12 01:48:05;;;;;;;37.1;33.8;;;;;;;17.92;91.41211;95269.67;;;;
2020/08/12 01:49:14;;;;;;;37.1;33.8;;;;;;;17.92;91.41211;95269.67;;;;
2020/08/12 01:50:19;;;;;;;37.1;33.8;;;;;;;17.92;91.41211;95269.67;;;;
2020/08/12 01:51:27;;;;;;;36.85001;33.45;;;;;;;17.85;92.33594;95272.03;;;;
2020/08/12 01:52:32;;;;;;;36.85001;33.45;;;;;;;17.85;92.33594;95272.03;;;;
2020/08/12 01:53:38;;;;;;;36.85001;33.45;;;;;;;17.85;92.33594;95272.03;;;;
2020/08/12 01:54:42;;;;;;;36.85001;33.45;;;;;;;17.85;92.33594;95272.03;;;;
2020/08/12 01:55:48;;;;;;;36.85001;33.45;;;;;;;17.85;92.33594;95272.03;;;;
2020/08/12 01:56:49;;;;;;;36.85001;33.45;;;;;;;17.85;92.33594;95272.03;;;;
2020/08/12 01:57:55;;;;;;;36.85001;33.45;;;;;;;17.85;92.33594;95272.03;;;;
2020/08/12 01:58:59;;;;;;;36.85001;33.45;;;;;;;17.85;92.33594;95272.03;;;;
2020/08/12 02:00:02;;;;;;;36.85001;33.45;;;;;;;17.85;92.33594;95272.03;;;;
2020/08/12 02:01:05;;;;;;;36.85001;33.45;;;;;;;17.85;92.33594;95272.03;;;;
2020/08/12 02:02:10;;;;;;;37.9;34.4;;;;;;;17.74;93.05273;95273.05;;;;
2020/08/12 02:03:17;;;;;;;37.9;34.4;;;;;;;17.74;93.05273;95273.05;;;;
2020/08/12 02:04:23;;;;;;;37.9;34.4;;;;;;;17.74;93.05273;95273.05;;;;
2020/08/12 02:05:31;;;;;;;37.9;34.4;;;;;;;17.74;93.05273;95273.05;;;;
2020/08/12 02:06:37;;;;;;;37.9;34.4;;;;;;;17.74;93.05273;95273.05;;;;
2020/08/12 02:07:42;;;;;;;37.9;34.4;;;;;;;17.74;93.05273;95273.05;;;;
2020/08/12 02:08:48;;;;;;;37.9;34.4;;;;;;;17.74;93.05273;95273.05;;;;
2020/08/12 02:09:54;;;;;;;37.9;34.4;;;;;;;17.74;93.05273;95273.05;;;;
2020/08/12 02:10:59;;;;;;;37.9;34.4;;;;;;;17.74;93.05273;95273.05;;;;
2020/08/12 02:12:02;;;;;;;37.9;34.4;;;;;;;17.74;93.05273;95273.05;;;;
2020/08/12 02:13:15;;;;;;;44.85;40.49999;;;;;;;17.71;93.73633;95263.23;;;;
2020/08/12 02:14:21;;;;;;;44.85;40.49999;;;;;;;17.71;93.73633;95263.23;;;;
2020/08/12 02:15:25;;;;;;;44.85;40.49999;;;;;;;17.71;93.73633;95263.23;;;;
2020/08/12 02:16:30;;;;;;;44.85;40.49999;;;;;;;17.71;93.73633;95263.23;;;;
2020/08/12 02:17:36;;;;;;;44.85;40.49999;;;;;;;17.71;93.73633;95263.23;;;;
2020/08/12 02:18:42;;;;;;;44.85;40.49999;;;;;;;17.71;93.73633;95263.23;;;;
2020/08/12 02:19:49;;;;;;;44.85;40.49999;;;;;;;17.71;93.73633;95263.23;;;;
2020/08/12 02:20:54;;;;;;;44.85;40.49999;;;;;;;17.71;93.73633;95263.23;;;;
2020/08/12 02:21:59;;;;;;;44.85;40.49999;;;;;;;17.71;93.73633;95263.23;;;;
2020/08/12 02:23:05;;;;;;;42.7;38.74999;;;;;;;17.62;94.3457;95274.34;;;;
2020/08/12 02:24:10;;;;;;;42.7;38.74999;;;;;;;17.62;94.3457;95274.34;;;;
2020/08/12 02:25:15;;;;;;;42.7;38.74999;;;;;;;17.62;94.3457;95274.34;;;;
2020/08/12 02:26:20;;;;;;;42.7;38.74999;;;;;;;17.62;94.3457;95274.34;;;;
2020/08/12 02:27:25;;;;;;;42.7;38.74999;;;;;;;17.62;94.3457;95274.34;;;;
2020/08/12 02:28:30;;;;;;;42.7;38.74999;;;;;;;17.62;94.3457;95274.34;;;;
2020/08/12 02:29:36;;;;;;;42.7;38.74999;;;;;;;17.62;94.3457;95274.34;;;;
2020/08/12 02:30:41;;;;;;;42.7;38.74999;;;;;;;17.62;94.3457;95274.34;;;;
2020/08/12 02:31:47;;;;;;;42.7;38.74999;;;;;;;17.62;94.3457;95274.34;;;;
2020/08/12 02:32:54;;;;;;;42.7;38.74999;;;;;;;17.62;94.3457;95274.34;;;;
2020/08/12 02:33:59;;;;;;;42.84999;38.69999;;;;;;;17.51;95.17578;95268.24;;;;
2020/08/12 02:35:03;;;;;;;42.84999;38.69999;;;;;;;17.51;95.17578;95268.24;;;;
2020/08/12 02:36:08;;;;;;;42.84999;38.69999;;;;;;;17.51;95.17578;95268.24;;;;
2020/08/12 02:37:13;;;;;;;42.84999;38.69999;;;;;;;17.51;95.17578;95268.24;;;;
2020/08/12 02:38:18;;;;;;;42.84999;38.69999;;;;;;;17.51;95.17578;95268.24;;;;
2020/08/12 02:39:25;;;;;;;42.84999;38.69999;;;;;;;17.51;95.17578;95268.24;;;;
2020/08/12 02:40:30;;;;;;;42.84999;38.69999;;;;;;;17.51;95.17578;95268.24;;;;
2020/08/12 02:41:37;;;;;;;42.84999;38.69999;;;;;;;17.51;95.17578;95268.24;;;;
2020/08/12 02:42:42;;;;;;;42.84999;38.69999;;;;;;;17.51;95.17578;95268.24;;;;
2020/08/12 02:43:48;;;;;;;42.84999;38.69999;;;;;;;17.51;95.17578;95268.24;;;;
2020/08/12 02:44:53;;;;;;;44.15;39.85;;;;;;;17.49;95.65527;95258.69;;;;
2020/08/12 02:46:00;;;;;;;44.15;39.85;;;;;;;17.49;95.65527;95258.69;;;;
2020/08/12 02:47:08;;;;;;;44.15;39.85;;;;;;;17.49;95.65527;95258.69;;;;
2020/08/12 02:48:12;;;;;;;44.15;39.85;;;;;;;17.49;95.65527;95258.69;;;;
2020/08/12 02:49:19;;;;;;;44.15;39.85;;;;;;;17.49;95.65527;95258.69;;;;
2020/08/12 02:50:25;;;;;;;44.15;39.85;;;;;;;17.49;95.65527;95258.69;;;;
2020/08/12 02:51:33;;;;;;;44.15;39.85;;;;;;;17.49;95.65527;95258.69;;;;
2020/08/12 02:52:39;;;;;;;44.15;39.85;;;;;;;17.49;95.65527;95258.69;;;;
2020/08/12 02:53:45;;;;;;;44.15;39.85;;;;;;;17.49;95.65527;95258.69;;;;
2020/08/12 02:54:50;;;;;;;42.44999;38.4;;;;;;;17.38;96.20605;95258.29;;;;
2020/08/12 02:55:54;;;;;;;42.44999;38.4;;;;;;;17.38;96.20605;95258.29;;;;
2020/08/12 02:56:55;;;;;;;42.44999;38.4;;;;;;;17.38;96.20605;95258.29;;;;
2020/08/12 02:58:00;;;;;;;42.44999;38.4;;;;;;;17.38;96.20605;95258.29;;;;
2020/08/12 02:59:04;;;;;;;42.44999;38.4;;;;;;;17.38;96.20605;95258.29;;;;
2020/08/12 03:00:05;;;;;;;42.44999;38.4;;;;;;;17.38;96.20605;95258.29;;;;
2020/08/12 03:01:11;;;;;;;42.44999;38.4;;;;;;;17.38;96.20605;95258.29;;;;
2020/08/12 03:02:18;;;;;;;42.44999;38.4;;;;;;;17.38;96.20605;95258.29;;;;
2020/08/12 03:03:23;;;;;;;42.44999;38.4;;;;;;;17.38;96.20605;95258.29;;;;
2020/08/12 03:04:28;;;;;;;42.44999;38.4;;;;;;;17.38;96.20605;95258.29;;;;
2020/08/12 03:05:33;;;;;;;43.75;39.65;;;;;;;17.28;96.91895;95255.2;;;;
2020/08/12 03:06:38;;;;;;;43.75;39.65;;;;;;;17.28;96.91895;95255.2;;;;
2020/08/12 03:07:48;;;;;;;43.75;39.65;;;;;;;17.28;96.91895;95255.2;;;;
2020/08/12 03:08:52;;;;;;;43.75;39.65;;;;;;;17.28;96.91895;95255.2;;;;
2020/08/12 03:09:56;;;;;;;43.75;39.65;;;;;;;17.28;96.91895;95255.2;;;;
2020/08/12 03:11:03;;;;;;;43.75;39.65;;;;;;;17.28;96.91895;95255.2;;;;
2020/08/12 03:12:07;;;;;;;43.75;39.65;;;;;;;17.28;96.91895;95255.2;;;;
2020/08/12 03:13:13;;;;;;;43.75;39.65;;;;;;;17.28;96.91895;95255.2;;;;
2020/08/12 03:14:18;;;;;;;43.75;39.65;;;;;;;17.28;96.91895;95255.2;;;;
2020/08/12 03:15:24;;;;;;;43.75;39.65;;;;;;;17.28;96.91895;95255.2;;;;
2020/08/12 03:16:33;;;;;;;42.45;38.34999;;;;;;;17.21;97.58301;95256.45;;;;
2020/08/12 03:17:38;;;;;;;42.45;38.34999;;;;;;;17.21;97.58301;95256.45;;;;
2020/08/12 03:18:44;;;;;;;42.45;38.34999;;;;;;;17.21;97.58301;95256.45;;;;
2020/08/12 03:19:49;;;;;;;42.45;38.34999;;;;;;;17.21;97.58301;95256.45;;;;
2020/08/12 03:20:56;;;;;;;42.45;38.34999;;;;;;;17.21;97.58301;95256.45;;;;
2020/08/12 03:21:59;;;;;;;42.45;38.34999;;;;;;;17.21;97.58301;95256.45;;;;
2020/08/12 03:23:04;;;;;;;42.45;38.34999;;;;;;;17.21;97.58301;95256.45;;;;
2020/08/12 03:24:14;;;;;;;42.45;38.34999;;;;;;;17.21;97.58301;95256.45;;;;
2020/08/12 03:25:18;;;;;;;42.45;38.34999;;;;;;;17.21;97.58301;95256.45;;;;
2020/08/12 03:26:27;;;;;;;42.45;38.34999;;;;;;;17.21;97.58301;95256.45;;;;
2020/08/12 03:27:33;;;;;;;40.2;36.3;;;;;;;17.19;98.00977;95259.59;;;;
2020/08/12 03:28:39;;;;;;;40.2;36.3;;;;;;;17.19;98.00977;95259.59;;;;
2020/08/12 03:29:44;;;;;;;40.2;36.3;;;;;;;17.19;98.00977;95259.59;;;;
2020/08/12 03:30:48;;;;;;;40.2;36.3;;;;;;;17.19;98.00977;95259.59;;;;
2020/08/12 03:31:53;;;;;;;40.2;36.3;;;;;;;17.19;98.00977;95259.59;;;;
2020/08/12 03:32:57;;;;;;;40.2;36.3;;;;;;;17.19;98.00977;95259.59;;;;
2020/08/12 03:33:58;;;;;;;40.2;36.3;;;;;;;17.19;98.00977;95259.59;;;;
2020/08/12 03:35:05;;;;;;;40.2;36.3;;;;;;;17.19;98.00977;95259.59;;;;
2020/08/12 03:36:10;;;;;;;40.2;36.3;;;;;;;17.19;98.00977;95259.59;;;;
2020/08/12 03:37:14;;;;;;;41.55;37.6;;;;;;;17.12;98.40527;95254.03;;;;
2020/08/12 03:38:21;;;;;;;41.55;37.6;;;;;;;17.12;98.40527;95254.03;;;;
2020/08/12 03:39:28;;;;;;;41.55;37.6;;;;;;;17.12;98.40527;95254.03;;;;
2020/08/12 03:40:34;;;;;;;41.55;37.6;;;;;;;17.12;98.40527;95254.03;;;;
2020/08/12 03:41:40;;;;;;;41.55;37.6;;;;;;;17.12;98.40527;95254.03;;;;
2020/08/12 03:42:43;;;;;;;41.55;37.6;;;;;;;17.12;98.40527;95254.03;;;;
2020/08/12 03:43:48;;;;;;;41.55;37.6;;;;;;;17.12;98.40527;95254.03;;;;
2020/08/12 03:44:54;;;;;;;41.55;37.6;;;;;;;17.12;98.40527;95254.03;;;;
2020/08/12 03:46:00;;;;;;;41.55;37.6;;;;;;;17.12;98.40527;95254.03;;;;
2020/08/12 03:47:08;;;;;;;41.55;37.6;;;;;;;17.12;98.40527;95254.03;;;;
2020/08/12 03:48:23;;;;;;;42.2;38.14999;;;;;;;17.03;99.06348;95261.14;;;;
2020/08/12 03:49:34;;;;;;;42.2;38.14999;;;;;;;17.03;99.06348;95261.14;;;;
2020/08/12 03:50:44;;;;;;;42.2;38.14999;;;;;;;17.03;99.06348;95261.14;;;;
2020/08/12 03:52:02;;;;;;;42.2;38.14999;;;;;;;17.03;99.06348;95261.14;;;;
2020/08/12 03:53:13;;;;;;;42.2;38.14999;;;;;;;17.03;99.06348;95261.14;;;;
2020/08/12 03:55:31;;;;;;;42.2;38.14999;;;;;;;17.03;99.06348;95261.14;;;;
2020/08/12 03:56:38;;;;;;;42.2;38.14999;;;;;;;17.03;99.06348;95261.14;;;;
2020/08/12 03:57:49;;;;;;;42.2;38.14999;;;;;;;17.03;99.06348;95261.14;;;;
2020/08/12 03:58:59;;;;;;;41.3;37.25;;;;;;;17.01;99.49023;95258.82;;;;
2020/08/12 04:00:11;;;;;;;41.3;37.25;;;;;;;17.01;99.49023;95258.82;;;;
2020/08/12 04:01:27;;;;;;;41.3;37.25;;;;;;;17.01;99.49023;95258.82;;;;
2020/08/12 04:02:35;;;;;;;41.3;37.25;;;;;;;17.01;99.49023;95258.82;;;;
2020/08/12 04:03:40;;;;;;;41.3;37.25;;;;;;;17.01;99.49023;95258.82;;;;
2020/08/12 04:04:49;;;;;;;41.3;37.25;;;;;;;17.01;99.49023;95258.82;;;;
2020/08/12 04:05:56;;;;;;;41.3;37.25;;;;;;;17.01;99.49023;95258.82;;;;
2020/08/12 04:07:03;;;;;;;41.3;37.25;;;;;;;17.01;99.49023;95258.82;;;;
2020/08/12 04:08:18;;;;;;;41.3;37.25;;;;;;;17.01;99.49023;95258.82;;;;
2020/08/12 04:09:25;;;;;;;41.45;37.4;;;;;;;16.95;99.83398;95271.65;;;;
2020/08/12 04:10:29;;;;;;;41.45;37.4;;;;;;;16.95;99.83398;95271.65;;;;
2020/08/12 04:11:39;;;;;;;41.45;37.4;;;;;;;16.95;99.83398;95271.65;;;;
2020/08/12 04:12:52;;;;;;;41.45;37.4;;;;;;;16.95;99.83398;95271.65;;;;
2020/08/12 04:14:07;;;;;;;41.45;37.4;;;;;;;16.95;99.83398;95271.65;;;;
2020/08/12 04:15:15;;;;;;;41.45;37.4;;;;;;;16.95;99.83398;95271.65;;;;
2020/08/12 04:16:26;;;;;;;41.45;37.4;;;;;;;16.95;99.83398;95271.65;;;;
2020/08/12 04:17:42;;;;;;;41.45;37.4;;;;;;;16.95;99.83398;95271.65;;;;
2020/08/12 04:18:49;;;;;;;41.45;37.4;;;;;;;16.95;99.83398;95271.65;;;;
2020/08/12 04:20:04;;;;;;;42.5;38.45;;;;;;;16.97;100;95280.38;;;;
2020/08/12 04:21:22;;;;;;;42.5;38.45;;;;;;;16.97;100;95280.38;;;;
2020/08/12 04:22:30;;;;;;;42.5;38.45;;;;;;;16.97;100;95280.38;;;;
2020/08/12 04:23:35;;;;;;;42.5;38.45;;;;;;;16.97;100;95280.38;;;;
2020/08/12 04:24:39;;;;;;;42.5;38.45;;;;;;;16.97;100;95280.38;;;;
2020/08/12 04:25:44;;;;;;;42.5;38.45;;;;;;;16.97;100;95280.38;;;;
2020/08/12 04:26:57;;;;;;;42.5;38.45;;;;;;;16.97;100;95280.38;;;;
2020/08/12 04:28:16;;;;;;;42.5;38.45;;;;;;;16.97;100;95280.38;;;;
2020/08/12 04:29:21;;;;;;;42.5;38.45;;;;;;;16.97;100;95280.38;;;;
2020/08/12 04:30:29;;;;;;;43.04999;39;;;;;;;16.97;100;95286.38;;;;
2020/08/12 04:31:40;;;;;;;43.04999;39;;;;;;;16.97;100;95286.38;;;;
2020/08/12 04:32:52;;;;;;;43.04999;39;;;;;;;16.97;100;95286.38;;;;
2020/08/12 04:34:10;;;;;;;43.04999;39;;;;;;;16.97;100;95286.38;;;;
2020/08/12 04:35:22;;;;;;;43.04999;39;;;;;;;16.97;100;95286.38;;;;
2020/08/12 04:36:29;;;;;;;43.04999;39;;;;;;;16.97;100;95286.38;;;;
2020/08/12 04:37:37;;;;;;;43.04999;39;;;;;;;16.97;100;95286.38;;;;
2020/08/12 04:38:41;;;;;;;43.04999;39;;;;;;;16.97;100;95286.38;;;;
2020/08/12 04:39:46;;;;;;;43.04999;39;;;;;;;16.97;100;95286.38;;;;
2020/08/12 04:41:01;;;;;;;43.95;39.7;;;;;;;17.07;100;95296.88;;;;
2020/08/12 04:42:11;;;;;;;43.95;39.7;;;;;;;17.07;100;95296.88;;;;
2020/08/12 04:43:23;;;;;;;43.95;39.7;;;;;;;17.07;100;95296.88;;;;
2020/08/12 04:44:33;;;;;;;43.95;39.7;;;;;;;17.07;100;95296.88;;;;
2020/08/12 04:45:42;;;;;;;43.95;39.7;;;;;;;17.07;100;95296.88;;;;
2020/08/12 04:46:47;;;;;;;43.95;39.7;;;;;;;17.07;100;95296.88;;;;
2020/08/12 04:48:06;;;;;;;43.95;39.7;;;;;;;17.07;100;95296.88;;;;
2020/08/12 04:49:23;;;;;;;43.95;39.7;;;;;;;17.07;100;95296.88;;;;
2020/08/12 04:50:35;;;;;;;43.95;39.7;;;;;;;17.07;100;95296.88;;;;
2020/08/12 04:51:41;;;;;;;42.69999;38.6;;;;;;;17.15;100;95292.61;;;;
2020/08/12 04:52:54;;;;;;;42.69999;38.6;;;;;;;17.15;100;95292.61;;;;
2020/08/12 04:54:02;;;;;;;42.69999;38.6;;;;;;;17.15;100;95292.61;;;;
2020/08/12 04:55:10;;;;;;;42.69999;38.6;;;;;;;17.15;100;95292.61;;;;
2020/08/12 04:56:18;;;;;;;42.69999;38.6;;;;;;;17.15;100;95292.61;;;;
2020/08/12 04:57:32;;;;;;;42.69999;38.6;;;;;;;17.15;100;95292.61;;;;
2020/08/12 04:58:52;;;;;;;42.69999;38.6;;;;;;;17.15;100;95292.61;;;;
2020/08/12 05:00:03;;;;;;;42.69999;38.6;;;;;;;17.15;100;95292.61;;;;
2020/08/12 05:01:21;;;;;;;42.69999;38.6;;;;;;;17.15;100;95292.61;;;;
2020/08/12 05:02:29;;;;;;;46.7;42;;;;;;;17.36;100;95299.64;;;;
2020/08/12 05:03:36;;;;;;;46.7;42;;;;;;;17.36;100;95299.64;;;;
2020/08/12 05:04:42;;;;;;;46.7;42;;;;;;;17.36;100;95299.64;;;;
2020/08/12 05:05:46;;;;;;;46.7;42;;;;;;;17.36;100;95299.64;;;;
2020/08/12 05:06:51;;;;;;;46.7;42;;;;;;;17.36;100;95299.64;;;;
2020/08/12 05:08:04;;;;;;;46.7;42;;;;;;;17.36;100;95299.64;;;;
2020/08/12 05:09:15;;;;;;;46.7;42;;;;;;;17.36;100;95299.64;;;;
2020/08/12 05:10:28;;;;;;;46.7;42;;;;;;;17.36;100;95299.64;;;;
2020/08/12 05:11:42;;;;;;;46.7;42;;;;;;;17.36;100;95299.64;;;;
2020/08/12 05:12:49;;;;;;;44.45;40.2;;;;;;;17.6;100;95309.43;;;;
2020/08/12 05:14:11;;;;;;;44.45;40.2;;;;;;;17.6;100;95309.43;;;;
2020/08/12 05:15:26;;;;;;;44.45;40.2;;;;;;;17.6;100;95309.43;;;;
2020/08/12 05:16:35;;;;;;;44.45;40.2;;;;;;;17.6;100;95309.43;;;;
2020/08/12 05:17:49;;;;;;;44.45;40.2;;;;;;;17.6;100;95309.43;;;;
2020/08/12 05:19:01;;;;;;;44.45;40.2;;;;;;;17.6;100;95309.43;;;;
2020/08/12 05:20:14;;;;;;;44.45;40.2;;;;;;;17.6;100;95309.43;;;;
2020/08/12 05:21:30;;;;;;;44.45;40.2;;;;;;;17.6;100;95309.43;;;;
2020/08/12 05:22:47;;;;;;;44.45;40.2;;;;;;;17.6;100;95309.43;;;;
2020/08/12 05:23:54;;;;;;;46.85;42.3;;;;;;;18.01;100;95320.06;;;;
2020/08/12 05:25:04;;;;;;;46.85;42.3;;;;;;;18.01;100;95320.06;;;;
2020/08/12 05:26:26;;;;;;;46.85;42.3;;;;;;;18.01;100;95320.06;;;;
2020/08/12 05:27:38;;;;;;;46.85;42.3;;;;;;;18.01;100;95320.06;;;;
2020/08/12 05:28:47;;;;;;;46.85;42.3;;;;;;;18.01;100;95320.06;;;;
2020/08/12 05:30:00;;;;;;;46.85;42.3;;;;;;;18.01;100;95320.06;;;;
2020/08/12 05:31:26;;;;;;;46.85;42.3;;;;;;;18.01;100;95320.06;;;;
2020/08/12 05:32:50;;;;;;;46.85;42.3;;;;;;;18.01;100;95320.06;;;;
2020/08/12 05:34:22;;;;;;;45.8;41.45;;;;;;;18.45;100;95314.48;;;;
2020/08/12 05:35:33;;;;;;;45.8;41.45;;;;;;;18.45;100;95314.48;;;;
2020/08/12 05:36:48;;;;;;;45.8;41.45;;;;;;;18.45;100;95314.48;;;;
2020/08/12 05:38:14;;;;;;;45.8;41.45;;;;;;;18.45;100;95314.48;;;;
2020/08/12 05:39:57;;;;;;;45.8;41.45;;;;;;;18.45;100;95314.48;;;;
2020/08/12 05:41:06;;;;;;;45.8;41.45;;;;;;;18.45;100;95314.48;;;;
2020/08/12 05:42:12;;;;;;;45.8;41.45;;;;;;;18.45;100;95314.48;;;;
2020/08/12 05:43:38;;;;;;;45.8;41.45;;;;;;;18.45;100;95314.48;;;;
2020/08/12 05:44:57;;;;;;;45.39999;41.05;;;;;;;19.04;100;95307.43;;;;
2020/08/12 05:46:21;;;;;;;45.39999;41.05;;;;;;;19.04;100;95307.43;;;;
2020/08/12 05:47:34;;;;;;;45.39999;41.05;;;;;;;19.04;100;95307.43;;;;
2020/08/12 05:48:42;;;;;;;45.39999;41.05;;;;;;;19.04;100;95307.43;;;;
2020/08/12 05:49:51;;;;;;;45.39999;41.05;;;;;;;19.04;100;95307.43;;;;
2020/08/12 05:51:14;;;;;;;45.39999;41.05;;;;;;;19.04;100;95307.43;;;;
2020/08/12 05:52:23;;;;;;;45.39999;41.05;;;;;;;19.04;100;95307.43;;;;
2020/08/12 05:53:34;;;;;;;45.39999;41.05;;;;;;;19.04;100;95307.43;;;;
2020/08/12 05:54:40;;;;;;;45.39999;41.05;;;;;;;19.04;100;95307.43;;;;
2020/08/12 05:55:48;;;;;;;45.45;41.15;;;;;;;19.6;99.90723;95307.15;;;;
2020/08/12 05:57:10;;;;;;;45.45;41.15;;;;;;;19.6;99.90723;95307.15;;;;
2020/08/12 05:58:25;;;;;;;45.45;41.15;;;;;;;19.6;99.90723;95307.15;;;;
2020/08/12 05:59:34;;;;;;;45.45;41.15;;;;;;;19.6;99.90723;95307.15;;;;
2020/08/12 06:00:45;;;;;;;45.45;41.15;;;;;;;19.6;99.90723;95307.15;;;;
2020/08/12 06:01:51;;;;;;;45.45;41.15;;;;;;;19.6;99.90723;95307.15;;;;
2020/08/12 06:02:58;;;;;;;45.45;41.15;;;;;;;19.6;99.90723;95307.15;;;;
2020/08/12 06:04:08;;;;;;;45.45;41.15;;;;;;;19.6;99.90723;95307.15;;;;
2020/08/12 06:05:20;;;;;;;45.45;41.15;;;;;;;19.6;99.90723;95307.15;;;;
2020/08/12 06:06:33;;;;;;;44.10001;39.9;;;;;;;20.18;99.22168;95300.39;;;;
2020/08/12 06:07:40;;;;;;;44.10001;39.9;;;;;;;20.18;99.22168;95300.39;;;;
2020/08/12 06:08:46;;;;;;;44.10001;39.9;;;;;;;20.18;99.22168;95300.39;;;;
2020/08/12 06:09:52;;;;;;;44.10001;39.9;;;;;;;20.18;99.22168;95300.39;;;;
2020/08/12 06:11:03;;;;;;;44.10001;39.9;;;;;;;20.18;99.22168;95300.39;;;;
2020/08/12 06:12:13;;;;;;;44.10001;39.9;;;;;;;20.18;99.22168;95300.39;;;;
2020/08/12 06:13:21;;;;;;;44.10001;39.9;;;;;;;20.18;99.22168;95300.39;;;;
2020/08/12 06:14:30;;;;;;;44.10001;39.9;;;;;;;20.18;99.22168;95300.39;;;;
2020/08/12 06:15:44;;;;;;;44.10001;39.9;;;;;;;20.18;99.22168;95300.39;;;;
2020/08/12 06:16:48;;;;;;;41.55;37.4;;;;;;;20.73;98.57031;95294.64;;;;
2020/08/12 06:17:56;;;;;;;41.55;37.4;;;;;;;20.73;98.57031;95294.64;;;;
2020/08/12 06:19:01;;;;;;;41.55;37.4;;;;;;;20.73;98.57031;95294.64;;;;
2020/08/12 06:20:09;;;;;;;41.55;37.4;;;;;;;20.73;98.57031;95294.64;;;;
2020/08/12 06:21:21;;;;;;;41.55;37.4;;;;;;;20.73;98.57031;95294.64;;;;
2020/08/12 06:22:29;;;;;;;41.55;37.4;;;;;;;20.73;98.57031;95294.64;;;;
2020/08/12 06:23:36;;;;;;;41.55;37.4;;;;;;;20.73;98.57031;95294.64;;;;
2020/08/12 06:24:41;;;;;;;41.55;37.4;;;;;;;20.73;98.57031;95294.64;;;;
2020/08/12 06:25:48;;;;;;;41.55;37.4;;;;;;;20.73;98.57031;95294.64;;;;
2020/08/12 06:26:52;;;;;;;38.65;35.24999;;;;;;;21.63;97.09082;95307.34;;;;
2020/08/12 06:27:59;;;;;;;38.65;35.24999;;;;;;;21.63;97.09082;95307.34;;;;
2020/08/12 06:29:06;;;;;;;38.65;35.24999;;;;;;;21.63;97.09082;95307.34;;;;
2020/08/12 06:30:12;;;;;;;38.65;35.24999;;;;;;;21.63;97.09082;95307.34;;;;
2020/08/12 06:31:19;;;;;;;38.65;35.24999;;;;;;;21.63;97.09082;95307.34;;;;
2020/08/12 06:32:24;;;;;;;38.65;35.24999;;;;;;;21.63;97.09082;95307.34;;;;
2020/08/12 06:33:30;;;;;;;38.65;35.24999;;;;;;;21.63;97.09082;95307.34;;;;
2020/08/12 06:34:45;;;;;;;38.65;35.24999;;;;;;;21.63;97.09082;95307.34;;;;
2020/08/12 06:35:50;;;;;;;38.65;35.24999;;;;;;;21.63;97.09082;95307.34;;;;
2020/08/12 06:37:01;;;;;;;38.65;35.24999;;;;;;;21.63;97.09082;95307.34;;;;
2020/08/12 06:38:08;;;;;;;38.1;34.40001;;;;;;;22.89;94.125;95306.43;;;;
2020/08/12 06:39:16;;;;;;;38.1;34.40001;;;;;;;22.89;94.125;95306.43;;;;
2020/08/12 06:40:23;;;;;;;38.1;34.40001;;;;;;;22.89;94.125;95306.43;;;;
2020/08/12 06:41:31;;;;;;;38.1;34.40001;;;;;;;22.89;94.125;95306.43;;;;
2020/08/12 06:42:37;;;;;;;38.1;34.40001;;;;;;;22.89;94.125;95306.43;;;;
2020/08/12 06:43:42;;;;;;;38.1;34.40001;;;;;;;22.89;94.125;95306.43;;;;
2020/08/12 06:44:50;;;;;;;38.1;34.40001;;;;;;;22.89;94.125;95306.43;;;;
2020/08/12 06:45:58;;;;;;;38.1;34.40001;;;;;;;22.89;94.125;95306.43;;;;
2020/08/12 06:47:05;;;;;;;38.1;34.40001;;;;;;;22.89;94.125;95306.43;;;;
2020/08/12 06:48:11;;;;;;;35.15;31.65;;;;;;;24.08;90.66602;95321.51;;;;
2020/08/12 06:49:24;;;;;;;35.15;31.65;;;;;;;24.08;90.66602;95321.51;;;;
2020/08/12 06:50:32;;;;;;;35.15;31.65;;;;;;;24.08;90.66602;95321.51;;;;
2020/08/12 06:51:50;;;;;;;35.15;31.65;;;;;;;24.08;90.66602;95321.51;;;;
2020/08/12 06:54:03;;;;;;;35.15;31.65;;;;;;;24.08;90.66602;95321.51;;;;
2020/08/12 06:55:47;;;;;;;35.15;31.65;;;;;;;24.08;90.66602;95321.51;;;;
2020/08/12 06:56:52;;;;;;;35.15;31.65;;;;;;;24.08;90.66602;95321.51;;;;
2020/08/12 06:58:01;;;;;;;35.15;31.65;;;;;;;24.08;90.66602;95321.51;;;;
2020/08/12 06:59:15;;;;;;;30.95;28.3;;;;;;;25.34;86.87402;95331.81;;;;
2020/08/12 07:00:23;;;;;;;30.95;28.3;;;;;;;25.34;86.87402;95331.81;;;;
2020/08/12 07:01:32;;;;;;;30.95;28.3;;;;;;;25.34;86.87402;95331.81;;;;
2020/08/12 07:02:42;;;;;;;30.95;28.3;;;;;;;25.34;86.87402;95331.81;;;;
2020/08/12 07:03:52;;;;;;;30.95;28.3;;;;;;;25.34;86.87402;95331.81;;;;
2020/08/12 07:05:11;;;;;;;30.95;28.3;;;;;;;25.34;86.87402;95331.81;;;;
2020/08/12 07:06:24;;;;;;;30.95;28.3;;;;;;;25.34;86.87402;95331.81;;;;
2020/08/12 07:07:39;;;;;;;30.95;28.3;;;;;;;25.34;86.87402;95331.81;;;;
2020/08/12 07:08:55;;;;;;;30.95;28.3;;;;;;;25.34;86.87402;95331.81;;;;
2020/08/12 07:10:13;;;;;;;31.3;28.4;;;;;;;25.53;85.56641;95332.7;;;;
2020/08/12 07:13:25;;;;;;;31.3;28.4;;;;;;;25.53;85.56641;95332.7;;;;
2020/08/12 07:14:37;;;;;;;31.3;28.4;;;;;;;25.53;85.56641;95332.7;;;;
2020/08/12 07:15:49;;;;;;;31.3;28.4;;;;;;;25.53;85.56641;95332.7;;;;
2020/08/12 07:17:01;;;;;;;31.3;28.4;;;;;;;25.53;85.56641;95332.7;;;;
2020/08/12 07:18:16;;;;;;;31.3;28.4;;;;;;;25.53;85.56641;95332.7;;;;
2020/08/12 07:19:29;;;;;;;31.3;28.4;;;;;;;25.53;85.56641;95332.7;;;;
2020/08/12 07:20:39;;;;;;;31.75;28.8;;;;;;;26.2;82.63965;95336.56;;;;
2020/08/12 07:21:45;;;;;;;31.75;28.8;;;;;;;26.2;82.63965;95336.56;;;;
2020/08/12 07:22:59;;;;;;;31.75;28.8;;;;;;;26.2;82.63965;95336.56;;;;
2020/08/12 07:24:16;;;;;;;31.75;28.8;;;;;;;26.2;82.63965;95336.56;;;;
2020/08/12 07:25:26;;;;;;;31.75;28.8;;;;;;;26.2;82.63965;95336.56;;;;
2020/08/12 07:26:40;;;;;;;31.75;28.8;;;;;;;26.2;82.63965;95336.56;;;;
2020/08/12 07:27:45;;;;;;;31.75;28.8;;;;;;;26.2;82.63965;95336.56;;;;
2020/08/12 07:28:50;;;;;;;31.75;28.8;;;;;;;26.2;82.63965;95336.56;;;;
2020/08/12 07:30:06;;;;;;;31.75;28.8;;;;;;;26.2;82.63965;95336.56;;;;
2020/08/12 07:31:16;;;;;;;30.95;28.2;;;;;;;26.95;80.20605;95337.02;;;;
2020/08/12 07:32:22;;;;;;;30.95;28.2;;;;;;;26.95;80.20605;95337.02;;;;
2020/08/12 07:33:34;;;;;;;30.95;28.2;;;;;;;26.95;80.20605;95337.02;;;;
2020/08/12 07:34:40;;;;;;;30.95;28.2;;;;;;;26.95;80.20605;95337.02;;;;
2020/08/12 07:35:49;;;;;;;30.95;28.2;;;;;;;26.95;80.20605;95337.02;;;;
2020/08/12 07:37:00;;;;;;;30.95;28.2;;;;;;;26.95;80.20605;95337.02;;;;
2020/08/12 07:38:19;;;;;;;30.95;28.2;;;;;;;26.95;80.20605;95337.02;;;;
2020/08/12 07:39:29;;;;;;;30.95;28.2;;;;;;;26.95;80.20605;95337.02;;;;
2020/08/12 07:40:34;;;;;;;30.95;28.2;;;;;;;26.95;80.20605;95337.02;;;;
2020/08/12 07:41:49;;;;;;;26.8;24.5;;;;;;;27.51;78.07227;95334.03;;;;
2020/08/12 07:43:04;;;;;;;26.8;24.5;;;;;;;27.51;78.07227;95334.03;;;;
2020/08/12 07:44:06;;;;;;;26.8;24.5;;;;;;;27.51;78.07227;95334.03;;;;
2020/08/12 07:45:11;;;;;;;26.8;24.5;;;;;;;27.51;78.07227;95334.03;;;;
2020/08/12 07:46:18;;;;;;;26.8;24.5;;;;;;;27.51;78.07227;95334.03;;;;
2020/08/12 07:47:27;;;;;;;26.8;24.5;;;;;;;27.51;78.07227;95334.03;;;;
2020/08/12 07:48:32;;;;;;;26.8;24.5;;;;;;;27.51;78.07227;95334.03;;;;
2020/08/12 07:49:37;;;;;;;26.8;24.5;;;;;;;27.51;78.07227;95334.03;;;;
2020/08/12 07:50:45;;;;;;;26.8;24.5;;;;;;;27.51;78.07227;95334.03;;;;
2020/08/12 07:51:55;;;;;;;28.45;26.2;;;;;;;28.07;76.73535;95332.47;;;;
2020/08/12 07:53:00;;;;;;;28.45;26.2;;;;;;;28.07;76.73535;95332.47;;;;
2020/08/12 07:54:05;;;;;;;28.45;26.2;;;;;;;28.07;76.73535;95332.47;;;;
2020/08/12 07:55:12;;;;;;;28.45;26.2;;;;;;;28.07;76.73535;95332.47;;;;
2020/08/12 07:56:18;;;;;;;28.45;26.2;;;;;;;28.07;76.73535;95332.47;;;;
2020/08/12 07:57:28;;;;;;;28.45;26.2;;;;;;;28.07;76.73535;95332.47;;;;
2020/08/12 07:58:34;;;;;;;28.45;26.2;;;;;;;28.07;76.73535;95332.47;;;;
2020/08/12 07:59:44;;;;;;;28.45;26.2;;;;;;;28.07;76.73535;95332.47;;;;
2020/08/12 08:00:49;;;;;;;28.45;26.2;;;;;;;28.07;76.73535;95332.47;;;;
2020/08/12 08:01:54;;;;;;;28.45;26.2;;;;;;;28.07;76.73535;95332.47;;;;
2020/08/12 08:03:00;;;;;;;25.1;22.95;;;;;;;28.45;75.2041;95345.62;;;;
2020/08/12 08:04:05;;;;;;;25.1;22.95;;;;;;;28.45;75.2041;95345.62;;;;
2020/08/12 08:05:11;;;;;;;25.1;22.95;;;;;;;28.45;75.2041;95345.62;;;;
2020/08/12 08:06:17;;;;;;;25.1;22.95;;;;;;;28.45;75.2041;95345.62;;;;
2020/08/12 08:07:24;;;;;;;25.1;22.95;;;;;;;28.45;75.2041;95345.62;;;;
2020/08/12 08:08:30;;;;;;;25.1;22.95;;;;;;;28.45;75.2041;95345.62;;;;
2020/08/12 08:09:35;;;;;;;25.1;22.95;;;;;;;28.45;75.2041;95345.62;;;;
2020/08/12 08:10:40;;;;;;;25.1;22.95;;;;;;;28.45;75.2041;95345.62;;;;